Time;durP1;ratioP1;P1;durP2;ratioP2;P2;SDS_P1;SDS_P2;PMS_P1;PMS_P2;Temp;Humidity;BMP_temperature;BMP_pressure;BME280_temperature;BME280_humidity;BME280_pressure;Samples;Min_cycle;Max_cycle;Signal;HPM_P1;HPM_P2
2023/08/15 00:01:20;;;;;;;24.43;21.63;;;23.70;99.90;;;;;;5033999;28;20977;-80
2023/08/15 00:03:47;;;;;;;10.20;6.70;;;23.70;99.90;;;;;;5035911;28;20526;-80
2023/08/15 00:06:14;;;;;;;5.53;4.97;;;23.70;99.90;;;;;;5036099;28;20503;-80
2023/08/15 00:08:41;;;;;;;5.30;4.90;;;23.70;99.90;;;;;;5034307;28;20476;-82
2023/08/15 00:11:08;;;;;;;4.93;4.53;;;23.70;99.90;;;;;;5035187;28;20971;-80
2023/08/15 00:13:40;;;;;;;5.30;4.40;;;23.70;99.90;;;;;;5035158;28;20491;-80
2023/08/15 00:16:07;;;;;;;4.57;3.30;;;23.60;99.90;;;;;;5035437;28;20472;-81
2023/08/15 00:18:34;;;;;;;4.87;4.47;;;23.60;99.90;;;;;;5035811;28;20547;-81
2023/08/15 00:21:01;;;;;;;8.10;5.20;;;23.50;99.90;;;;;;5035754;28;20966;-83
2023/08/15 00:23:29;;;;;;;6.33;5.00;;;23.50;99.90;;;;;;5023431;28;20963;-83
2023/08/15 00:25:56;;;;;;;6.43;5.33;;;23.40;99.90;;;;;;5034052;28;20491;-83
2023/08/15 00:28:22;;;;;;;5.30;4.80;;;23.40;99.90;;;;;;5034344;28;20559;-82
2023/08/15 00:30:51;;;;;;;5.03;4.53;;;23.40;99.90;;;;;;5034944;28;20534;-80
2023/08/15 00:33:18;;;;;;;5.20;4.70;;;23.30;99.90;;;;;;5023557;28;20537;-79
2023/08/15 00:35:45;;;;;;;4.87;4.37;;;23.30;99.90;;;;;;5033720;28;20535;-77
2023/08/15 00:38:13;;;;;;;5.43;4.93;;;23.30;99.90;;;;;;5033956;28;20604;-79
2023/08/15 00:40:41;;;;;;;4.93;4.43;;;23.20;99.90;;;;;;5033682;28;21025;-78
2023/08/15 00:43:10;;;;;;;8.23;6.20;;;23.20;99.90;;;;;;5034529;28;20465;-81
2023/08/15 00:45:41;;;;;;;8.00;6.43;;;23.10;99.90;;;;;;5034648;28;20480;-82
2023/08/15 00:48:10;;;;;;;6.17;4.67;;;23.00;99.90;;;;;;5034357;28;20472;-81
2023/08/15 00:50:38;;;;;;;5.60;5.03;;;22.90;99.90;;;;;;5033817;28;20560;-81
2023/08/15 00:53:06;;;;;;;3.60;3.30;;;22.90;99.90;;;;;;5034481;28;20507;-79
2023/08/15 00:55:34;;;;;;;4.63;3.20;;;22.80;99.90;;;;;;5033592;28;20551;-81
2023/08/15 00:58:01;;;;;;;3.40;3.10;;;22.70;99.90;;;;;;5033339;28;20950;-78
2023/08/15 01:00:28;;;;;;;4.33;3.00;;;22.70;99.90;;;;;;5033194;28;21016;-81
2023/08/15 01:02:55;;;;;;;3.63;3.33;;;22.80;99.90;;;;;;5033872;28;20478;-81
2023/08/15 01:05:24;;;;;;;5.47;5.07;;;22.70;99.90;;;;;;5033803;28;20970;-79
2023/08/15 01:07:51;;;;;;;4.47;4.07;;;22.70;99.90;;;;;;5032982;28;20456;-79
2023/08/15 01:10:19;;;;;;;4.60;2.80;;;22.70;99.90;;;;;;5033564;28;20579;-79
2023/08/15 01:12:52;;;;;;;2.83;2.63;;;22.70;99.90;;;;;;5033310;28;20468;-79
2023/08/15 01:15:25;;;;;;;3.30;3.10;;;22.70;99.90;;;;;;5033120;28;20506;-78
2023/08/15 01:18:05;;;;;;;5.57;2.73;;;22.60;99.90;;;;;;5033109;28;20518;-78
2023/08/15 01:20:36;;;;;;;5.00;3.73;;;22.60;99.90;;;;;;5032765;28;20539;-78
2023/08/15 01:23:07;;;;;;;3.50;3.20;;;22.60;99.90;;;;;;5033278;28;20534;-78
2023/08/15 01:25:40;;;;;;;3.17;2.87;;;22.50;99.90;;;;;;5031666;28;20555;-78
2023/08/15 01:28:11;;;;;;;3.03;2.80;;;22.50;99.90;;;;;;5033164;28;20476;-77
2023/08/15 01:30:44;;;;;;;4.37;3.40;;;22.50;99.90;;;;;;5032692;28;20499;-77
2023/08/15 01:33:18;;;;;;;3.45;3.05;;;22.50;99.90;;;;;;5033425;28;20542;-80
2023/08/15 01:35:51;;;;;;;3.33;3.03;;;22.50;99.90;;;;;;5032435;28;20572;-77
2023/08/15 01:38:26;;;;;;;3.10;2.80;;;22.40;99.90;;;;;;5030909;28;20479;-78
2023/08/15 01:40:57;;;;;;;2.80;2.60;;;22.50;99.90;;;;;;5033074;28;20452;-79
2023/08/15 01:43:29;;;;;;;3.23;2.90;;;22.40;99.90;;;;;;5032443;28;20559;-78
2023/08/15 01:45:59;;;;;;;3.50;3.20;;;22.50;99.90;;;;;;5031676;28;20464;-78
2023/08/15 01:48:26;;;;;;;2.83;2.63;;;22.50;99.90;;;;;;5032993;28;20969;-78
2023/08/15 01:50:53;;;;;;;2.30;2.10;;;22.50;99.90;;;;;;5032622;28;20468;-78
2023/08/15 01:53:20;;;;;;;2.50;2.30;;;22.50;99.90;;;;;;5022237;28;20468;-78
2023/08/15 01:55:47;;;;;;;2.23;2.10;;;22.50;99.90;;;;;;5032368;28;20468;-77
2023/08/15 01:58:15;;;;;;;2.50;2.30;;;22.50;99.90;;;;;;5033191;28;20482;-78
2023/08/15 02:00:43;;;;;;;2.67;2.50;;;22.50;99.90;;;;;;5032213;28;20471;-77
2023/08/15 02:03:10;;;;;;;3.00;2.77;;;22.50;99.90;;;;;;5037250;28;20462;-77
2023/08/15 02:05:37;;;;;;;3.43;3.03;;;22.50;99.90;;;;;;5037601;28;20973;-78
2023/08/15 02:08:05;;;;;;;3.20;2.43;;;22.60;99.90;;;;;;5037755;28;20486;-78
2023/08/15 02:10:32;;;;;;;2.67;2.47;;;22.50;99.90;;;;;;5037927;28;20543;-77
2023/08/15 02:12:59;;;;;;;2.53;2.33;;;22.50;99.90;;;;;;5038332;28;20543;-80
2023/08/15 02:15:27;;;;;;;2.90;2.70;;;22.50;99.90;;;;;;5038525;28;20965;-80
2023/08/15 02:17:56;;;;;;;3.37;2.80;;;22.60;99.90;;;;;;5038359;28;20503;-80
2023/08/15 02:20:23;;;;;;;2.63;2.43;;;22.50;99.90;;;;;;5038079;28;20468;-80
2023/08/15 02:22:50;;;;;;;3.30;2.93;;;22.50;99.90;;;;;;5043808;28;21002;-80
2023/08/15 02:25:17;;;;;;;2.60;2.40;;;22.50;99.90;;;;;;5036752;28;20475;-80
2023/08/15 02:27:44;;;;;;;3.17;2.87;;;22.50;99.90;;;;;;5036149;28;20958;-80
2023/08/15 02:30:12;;;;;;;2.77;2.57;;;22.50;99.90;;;;;;5036447;28;20492;-80
2023/08/15 02:32:40;;;;;;;3.50;2.63;;;22.50;99.90;;;;;;5036539;28;20463;-80
2023/08/15 02:35:08;;;;;;;2.57;2.37;;;22.50;99.90;;;;;;5035985;28;20532;-80
2023/08/15 02:37:35;;;;;;;2.53;2.37;;;22.50;99.90;;;;;;5036284;28;20495;-80
2023/08/15 02:40:06;;;;;;;2.83;2.63;;;22.50;99.90;;;;;;5035906;28;20546;-80
2023/08/15 02:42:32;;;;;;;3.00;2.70;;;22.50;99.90;;;;;;5036332;28;20464;-80
2023/08/15 02:45:01;;;;;;;3.20;2.90;;;22.40;99.90;;;;;;5035431;28;20502;-80
2023/08/15 02:47:28;;;;;;;2.87;2.67;;;22.40;99.90;;;;;;5036306;28;20493;-81
2023/08/15 02:49:56;;;;;;;2.97;2.77;;;22.40;99.90;;;;;;5035680;28;20501;-81
2023/08/15 02:52:24;;;;;;;3.00;2.57;;;22.40;99.90;;;;;;5036040;28;20467;-80
2023/08/15 02:54:51;;;;;;;3.67;3.47;;;22.40;99.90;;;;;;5035642;28;20490;-80
2023/08/15 02:57:18;;;;;;;3.57;2.90;;;22.40;99.90;;;;;;5036117;28;20460;-81
2023/08/15 02:59:45;;;;;;;2.87;2.67;;;22.40;99.90;;;;;;5035505;28;20556;-79
2023/08/15 03:02:13;;;;;;;3.00;2.80;;;22.40;99.90;;;;;;5036071;28;20798;-80
2023/08/15 03:04:40;;;;;;;2.97;2.77;;;22.40;99.90;;;;;;5035493;28;20472;-80
2023/08/15 03:07:08;;;;;;;2.87;2.63;;;22.30;99.90;;;;;;5034938;28;20536;-78
2023/08/15 03:09:35;;;;;;;2.90;2.70;;;22.30;99.90;;;;;;5035597;28;20556;-78
2023/08/15 03:12:02;;;;;;;3.90;3.60;;;22.30;99.90;;;;;;5034559;28;20878;-78
2023/08/15 03:14:29;;;;;;;3.40;3.10;;;22.30;99.90;;;;;;5035351;28;20473;-80
2023/08/15 03:16:56;;;;;;;3.23;3.03;;;22.30;99.90;;;;;;5035185;28;20476;-79
2023/08/15 03:19:23;;;;;;;3.13;2.93;;;22.30;99.90;;;;;;5035469;28;20468;-80
2023/08/15 03:21:50;;;;;;;3.90;3.60;;;22.30;99.90;;;;;;5034766;28;20472;-78
2023/08/15 03:24:19;;;;;;;3.10;2.80;;;22.30;99.90;;;;;;5035040;28;20487;-78
2023/08/15 03:26:46;;;;;;;3.80;3.50;;;22.30;99.90;;;;;;5035322;28;20989;-78
2023/08/15 03:29:13;;;;;;;4.37;3.40;;;22.20;99.90;;;;;;5035052;28;20468;-80
2023/08/15 03:31:40;;;;;;;4.10;3.80;;;22.20;99.90;;;;;;5035625;28;20551;-80
2023/08/15 03:34:07;;;;;;;4.20;3.90;;;22.20;99.90;;;;;;5033980;28;20514;-79
2023/08/15 03:36:34;;;;;;;5.40;3.40;;;22.20;99.90;;;;;;5034990;28;20878;-78
2023/08/15 03:39:01;;;;;;;4.60;3.90;;;22.20;99.90;;;;;;5034443;28;20503;-80
2023/08/15 03:41:30;;;;;;;4.50;4.10;;;22.20;99.90;;;;;;5034969;28;20470;-80
2023/08/15 03:43:57;;;;;;;5.30;4.60;;;22.20;99.90;;;;;;5034481;28;20471;-80
2023/08/15 03:46:25;;;;;;;4.90;4.50;;;22.20;99.90;;;;;;5035148;28;20472;-80
2023/08/15 03:48:52;;;;;;;5.30;4.90;;;22.20;99.90;;;;;;5034558;28;20496;-79
2023/08/15 03:51:19;;;;;;;5.87;5.10;;;22.10;99.90;;;;;;5034849;28;20464;-79
2023/08/15 03:53:46;;;;;;;4.80;4.40;;;22.10;99.90;;;;;;5034417;28;20537;-78
2023/08/15 03:56:12;;;;;;;5.30;4.90;;;22.10;99.90;;;;;;5033626;28;20888;-81
2023/08/15 03:58:41;;;;;;;4.87;4.53;;;22.10;99.90;;;;;;5034879;28;20551;-80
2023/08/15 04:01:07;;;;;;;5.50;5.00;;;22.10;99.90;;;;;;5034173;28;20500;-79
2023/08/15 04:03:35;;;;;;;4.50;4.10;;;22.10;99.90;;;;;;5034825;28;20471;-81
2023/08/15 04:06:02;;;;;;;5.37;4.90;;;22.10;99.90;;;;;;5034552;28;20483;-80
2023/08/15 04:08:29;;;;;;;5.30;4.90;;;22.10;99.90;;;;;;5034380;28;20503;-79
2023/08/15 04:10:56;;;;;;;6.03;5.53;;;22.10;99.90;;;;;;5024125;28;20476;-79
2023/08/15 04:13:23;;;;;;;5.67;5.17;;;22.10;99.90;;;;;;5033446;28;20543;-77
2023/08/15 04:15:51;;;;;;;5.30;4.80;;;22.10;99.90;;;;;;5034231;28;20556;-80
2023/08/15 04:18:18;;;;;;;5.27;4.87;;;22.10;99.90;;;;;;5033576;28;20486;-78
2023/08/15 04:20:45;;;;;;;6.10;5.50;;;22.10;99.90;;;;;;5034748;28;20491;-80
2023/08/15 04:23:12;;;;;;;6.90;5.93;;;22.10;99.90;;;;;;5035026;28;20492;-80
2023/08/15 04:25:40;;;;;;;8.07;7.27;;;22.10;99.90;;;;;;5036563;28;20472;-78
2023/08/15 04:28:07;;;;;;;5.97;5.47;;;22.10;99.90;;;;;;5033339;28;20472;-81
2023/08/15 04:30:35;;;;;;;7.10;6.50;;;22.10;99.90;;;;;;5034126;28;20511;-78
2023/08/15 04:33:06;;;;;;;6.60;6.10;;;22.10;99.90;;;;;;5033820;28;21021;-80
2023/08/15 04:35:32;;;;;;;6.40;5.90;;;22.10;99.90;;;;;;5034323;28;20545;-81
2023/08/15 04:38:00;;;;;;;6.43;5.83;;;22.10;99.90;;;;;;5034262;28;20472;-78
2023/08/15 04:40:37;;;;;;;6.70;6.07;;;22.10;99.90;;;;;;5033405;28;20476;-80
2023/08/15 04:43:05;;;;;;;5.40;5.00;;;22.20;99.90;;;;;;5033398;28;20463;-80
2023/08/15 04:45:32;;;;;;;7.23;6.50;;;22.20;99.90;;;;;;5033692;28;20522;-77
2023/08/15 04:47:59;;;;;;;6.67;6.03;;;22.10;99.90;;;;;;5033479;28;20529;-78
2023/08/15 04:50:27;;;;;;;6.43;5.97;;;22.20;99.90;;;;;;5033340;28;20547;-78
2023/08/15 04:52:54;;;;;;;6.67;6.10;;;22.20;99.90;;;;;;5033666;28;20563;-80
2023/08/15 04:55:21;;;;;;;5.50;5.10;;;22.20;99.90;;;;;;5032937;28;20559;-78
2023/08/15 04:57:48;;;;;;;6.13;5.47;;;22.20;99.90;;;;;;5033671;28;20550;-78
2023/08/15 05:00:19;;;;;;;7.60;7.00;;;22.20;99.90;;;;;;5032836;28;20496;-78
2023/08/15 05:02:46;;;;;;;6.53;6.13;;;22.20;99.90;;;;;;5033136;28;21023;-78
2023/08/15 05:05:13;;;;;;;7.43;6.73;;;22.20;99.90;;;;;;5033091;28;20495;-80
2023/08/15 05:07:41;;;;;;;6.33;5.73;;;22.20;99.90;;;;;;5033622;28;20526;-81
2023/08/15 05:10:13;;;;;;;6.93;6.43;;;22.20;99.90;;;;;;5033098;28;20481;-80
2023/08/15 05:12:43;;;;;;;6.73;6.13;;;22.20;99.90;;;;;;5034070;28;20527;-81
2023/08/15 05:15:10;;;;;;;6.47;6.00;;;22.20;99.90;;;;;;5033302;28;20472;-80
2023/08/15 05:17:37;;;;;;;8.23;7.43;;;22.30;99.90;;;;;;5033221;28;20472;-78
2023/08/15 05:20:06;;;;;;;6.20;5.13;;;22.30;99.90;;;;;;5033419;28;20479;-78
2023/08/15 05:22:33;;;;;;;6.43;5.93;;;22.30;99.90;;;;;;5033112;28;20539;-78
2023/08/15 05:25:02;;;;;;;7.83;7.10;;;22.30;99.90;;;;;;5033573;28;20547;-77
2023/08/15 05:27:29;;;;;;;6.80;6.30;;;22.30;99.90;;;;;;5032752;28;20456;-79
2023/08/15 05:29:56;;;;;;;5.90;5.50;;;22.40;99.90;;;;;;5033053;28;20518;-81
2023/08/15 05:32:23;;;;;;;7.57;6.00;;;22.40;99.90;;;;;;5033094;28;20499;-81
2023/08/15 05:34:50;;;;;;;5.90;5.40;;;22.40;99.90;;;;;;5033095;28;20476;-81
2023/08/15 05:37:17;;;;;;;5.90;5.40;;;22.40;99.90;;;;;;5036405;28;20954;-81
2023/08/15 05:39:44;;;;;;;8.50;6.97;;;22.50;99.90;;;;;;5037250;28;20533;-80
2023/08/15 05:42:17;;;;;;;5.47;5.07;;;22.50;99.90;;;;;;5036861;28;20547;-79
2023/08/15 05:44:44;;;;;;;6.60;6.10;;;22.50;99.90;;;;;;5037091;28;20482;-81
2023/08/15 05:47:11;;;;;;;6.47;5.97;;;22.50;99.90;;;;;;5036321;28;20468;-81
2023/08/15 05:49:38;;;;;;;5.30;4.80;;;22.60;99.90;;;;;;5037019;28;20476;-79
2023/08/15 05:52:05;;;;;;;5.30;5.00;;;22.60;99.90;;;;;;5036394;28;20480;-79
2023/08/15 05:54:35;;;;;;;7.33;5.37;;;22.60;99.90;;;;;;5036267;28;20711;-78
2023/08/15 05:57:02;;;;;;;5.33;4.83;;;22.60;99.90;;;;;;5036840;28;20559;-78
2023/08/15 05:59:30;;;;;;;5.40;5.00;;;22.70;99.90;;;;;;5036051;28;20484;-79
2023/08/15 06:01:58;;;;;;;5.90;5.47;;;22.70;99.90;;;;;;5036938;28;20809;-81
2023/08/15 06:04:25;;;;;;;6.17;5.40;;;22.70;99.90;;;;;;5036242;28;20530;-81
2023/08/15 06:06:52;;;;;;;6.30;5.80;;;22.70;99.90;;;;;;5036853;28;20478;-81
2023/08/15 06:09:19;;;;;;;7.00;6.30;;;22.80;99.90;;;;;;5036130;28;20476;-80
2023/08/15 06:11:49;;;;;;;7.87;7.17;;;22.80;99.90;;;;;;5036480;28;20538;-81
2023/08/15 06:14:19;;;;;;;7.23;6.20;;;22.80;99.90;;;;;;5036372;28;21030;-79
2023/08/15 06:16:47;;;;;;;6.40;5.80;;;22.90;99.90;;;;;;5036562;28;20783;-81
2023/08/15 06:19:14;;;;;;;5.43;5.07;;;22.90;99.90;;;;;;5036361;28;20474;-81
2023/08/15 06:21:42;;;;;;;6.63;6.13;;;22.90;99.90;;;;;;5036469;28;20534;-77
2023/08/15 06:24:09;;;;;;;6.10;5.70;;;23.00;99.90;;;;;;5035922;28;20484;-81
2023/08/15 06:26:36;;;;;;;5.80;5.40;;;23.00;99.90;;;;;;5035794;28;20804;-81
2023/08/15 06:29:04;;;;;;;5.23;4.73;;;23.00;99.90;;;;;;5036553;28;20877;-81
2023/08/15 06:31:31;;;;;;;6.43;5.93;;;23.00;99.90;;;;;;5026684;28;20491;-81
2023/08/15 06:33:59;;;;;;;6.30;5.77;;;23.10;99.90;;;;;;5035429;28;20477;-79
2023/08/15 06:36:26;;;;;;;5.30;4.90;;;23.10;99.90;;;;;;5035178;28;21031;-79
2023/08/15 06:38:53;;;;;;;6.53;5.87;;;23.10;99.90;;;;;;5035968;28;20464;-79
2023/08/15 06:41:20;;;;;;;8.23;7.53;;;23.20;99.90;;;;;;5035629;28;20464;-79
2023/08/15 06:43:47;;;;;;;6.27;5.67;;;23.20;99.90;;;;;;5035353;28;20464;-81
2023/08/15 06:46:14;;;;;;;6.80;5.30;;;23.30;99.90;;;;;;5035774;28;20478;-76
2023/08/15 06:48:42;;;;;;;5.03;4.63;;;23.30;99.90;;;;;;5022292;28;20478;-78
2023/08/15 06:51:10;;;;;;;6.27;5.77;;;23.30;99.90;;;;;;5035081;28;20476;-78
2023/08/15 06:53:40;;;;;;;6.80;6.33;;;23.40;99.90;;;;;;5035164;28;20477;-78
2023/08/15 06:56:07;;;;;;;6.17;5.67;;;23.50;99.90;;;;;;5035386;28;20547;-79
2023/08/15 06:58:36;;;;;;;6.13;5.63;;;23.50;99.90;;;;;;5035391;28;20472;-78
2023/08/15 07:01:05;;;;;;;7.60;7.10;;;23.60;99.90;;;;;;5035789;28;20487;-78
2023/08/15 07:03:33;;;;;;;6.57;6.07;;;23.60;99.90;;;;;;5034668;28;20826;-78
2023/08/15 07:06:03;;;;;;;7.03;6.33;;;23.60;99.90;;;;;;5035466;28;21043;-78
2023/08/15 07:08:33;;;;;;;7.00;6.37;;;23.70;99.90;;;;;;5034313;28;20468;-77
2023/08/15 07:11:01;;;;;;;7.90;7.20;;;23.70;99.90;;;;;;5035533;28;20533;-77
2023/08/15 07:13:28;;;;;;;7.07;6.47;;;23.80;99.90;;;;;;5033904;28;20555;-78
2023/08/15 07:15:55;;;;;;;9.23;8.33;;;23.80;99.90;;;;;;5035647;28;20503;-80
2023/08/15 07:18:23;;;;;;;6.60;6.00;;;23.90;99.90;;;;;;5024766;28;20890;-80
2023/08/15 07:20:51;;;;;;;7.00;5.97;;;24.00;99.90;;;;;;5026132;28;21011;-81
2023/08/15 07:23:18;;;;;;;7.83;7.10;;;24.00;99.90;;;;;;5035619;28;20481;-80
2023/08/15 07:25:47;;;;;;;6.93;6.27;;;24.00;99.90;;;;;;5033173;28;20527;-78
2023/08/15 07:28:14;;;;;;;6.40;5.90;;;24.20;99.90;;;;;;5035494;28;20475;-81
2023/08/15 07:30:45;;;;;;;7.70;7.13;;;24.20;99.90;;;;;;5033229;28;20503;-81
2023/08/15 07:33:12;;;;;;;6.20;5.80;;;24.30;99.90;;;;;;5034946;28;20471;-79
2023/08/15 07:35:39;;;;;;;6.57;6.07;;;24.40;99.90;;;;;;5034276;28;20496;-79
2023/08/15 07:38:06;;;;;;;7.93;7.17;;;24.50;99.90;;;;;;5034876;28;20468;-79
2023/08/15 07:40:33;;;;;;;8.63;7.83;;;24.60;99.90;;;;;;5026016;28;20476;-81
2023/08/15 07:43:06;;;;;;;10.93;10.13;;;24.60;99.90;;;;;;5034536;28;20480;-81
2023/08/15 07:45:34;;;;;;;6.57;5.97;;;24.70;99.90;;;;;;5034852;28;20468;-81
2023/08/15 07:48:00;;;;;;;10.97;10.07;;;24.80;99.90;;;;;;5034313;28;20469;-79
2023/08/15 07:50:29;;;;;;;11.23;10.13;;;24.80;99.90;;;;;;5034607;28;20555;-79
2023/08/15 07:52:58;;;;;;;10.53;9.63;;;24.90;99.90;;;;;;5033952;28;20471;-81
2023/08/15 07:55:26;;;;;;;8.67;7.87;;;25.00;99.90;;;;;;5034884;28;20479;-81
2023/08/15 07:57:53;;;;;;;9.87;8.97;;;25.00;99.90;;;;;;5033246;28;21020;-79
2023/08/15 08:00:22;;;;;;;9.10;8.30;;;25.00;99.90;;;;;;5034268;28;20575;-79
2023/08/15 08:02:49;;;;;;;5.63;5.13;;;25.10;99.90;;;;;;5033763;28;20469;-79
2023/08/15 08:05:16;;;;;;;8.00;7.30;;;25.10;99.90;;;;;;5031377;28;20464;-79
2023/08/15 08:07:47;;;;;;;7.20;6.60;;;25.20;99.90;;;;;;5033927;28;20522;-79
2023/08/15 08:10:16;;;;;;;8.23;6.70;;;25.30;99.90;;;;;;5034250;28;20471;-80
2023/08/15 08:12:43;;;;;;;7.13;6.43;;;25.30;99.90;;;;;;5033914;28;20543;-81
2023/08/15 08:15:13;;;;;;;7.30;6.60;;;25.30;99.90;;;;;;5034525;28;20499;-81
2023/08/15 08:17:41;;;;;;;6.70;6.20;;;25.40;99.90;;;;;;5021627;28;20547;-78
2023/08/15 08:20:14;;;;;;;8.93;8.13;;;25.40;99.90;;;;;;5033587;28;20552;-78
2023/08/15 08:22:41;;;;;;;8.80;7.97;;;25.50;99.90;;;;;;5033947;28;20475;-79
2023/08/15 08:25:16;;;;;;;7.30;6.70;;;25.50;99.90;;;;;;5024627;28;20555;-79
2023/08/15 08:27:43;;;;;;;7.70;7.20;;;25.60;99.90;;;;;;5033847;28;20467;-78
2023/08/15 08:30:11;;;;;;;7.30;6.60;;;25.60;99.90;;;;;;5033324;28;20575;-81
2023/08/15 08:32:41;;;;;;;7.20;6.70;;;25.60;99.90;;;;;;5034127;28;20542;-79
2023/08/15 08:35:10;;;;;;;6.73;6.23;;;25.50;99.90;;;;;;5033398;28;20487;-81
2023/08/15 08:37:37;;;;;;;8.00;6.33;;;25.50;99.90;;;;;;5025025;28;20526;-82
2023/08/15 08:40:05;;;;;;;6.90;6.30;;;25.50;99.90;;;;;;5033124;28;20487;-81
2023/08/15 08:42:32;;;;;;;6.77;6.27;;;25.40;99.90;;;;;;5034071;28;20530;-79
2023/08/15 08:45:00;;;;;;;6.30;5.83;;;25.40;99.90;;;;;;5033160;28;20838;-81
2023/08/15 08:47:31;;;;;;;7.23;6.60;;;25.40;99.90;;;;;;5033972;28;20472;-81
2023/08/15 08:50:01;;;;;;;7.00;6.50;;;25.50;99.90;;;;;;5034055;28;20553;-81
2023/08/15 08:52:29;;;;;;;6.50;6.10;;;25.60;99.90;;;;;;5032198;28;20460;-81
2023/08/15 08:54:56;;;;;;;6.67;6.17;;;25.60;99.90;;;;;;5025029;28;20472;-80
2023/08/15 08:57:42;;;;;;;6.90;6.40;;;25.60;99.90;;;;;;5032811;28;20559;-81
2023/08/15 09:00:15;;;;;;;6.87;6.37;;;25.60;99.90;;;;;;5027140;28;20483;-80
2023/08/15 09:02:42;;;;;;;6.27;5.87;;;25.70;99.90;;;;;;5033789;28;20476;-78
2023/08/15 09:05:11;;;;;;;6.67;6.17;;;25.60;99.90;;;;;;5033765;28;20555;-78
2023/08/15 09:07:41;;;;;;;6.67;6.07;;;25.60;99.90;;;;;;5032627;28;20460;-79
2023/08/15 09:10:09;;;;;;;6.57;6.07;;;25.60;99.90;;;;;;5032794;28;20483;-81
2023/08/15 09:12:38;;;;;;;5.63;5.23;;;25.60;99.90;;;;;;5033157;28;20460;-81
2023/08/15 09:15:06;;;;;;;6.17;5.70;;;25.60;99.90;;;;;;5033419;28;20472;-81
2023/08/15 09:17:40;;;;;;;5.97;5.57;;;25.60;99.90;;;;;;5032698;28;20555;-81
2023/08/15 09:20:12;;;;;;;6.87;6.27;;;25.60;99.90;;;;;;5033255;28;20523;-79
2023/08/15 09:22:45;;;;;;;6.10;5.60;;;25.60;99.90;;;;;;5005738;28;20460;-78
2023/08/15 09:25:14;;;;;;;5.67;5.27;;;25.60;99.90;;;;;;5032723;28;20469;-79
2023/08/15 09:27:41;;;;;;;5.83;5.43;;;25.60;99.90;;;;;;5033098;28;20449;-80
2023/08/15 09:30:21;;;;;;;6.60;6.20;;;25.60;99.90;;;;;;5033323;28;20491;-80
2023/08/15 09:32:48;;;;;;;6.80;6.30;;;25.60;99.90;;;;;;5033757;28;20539;-79
2023/08/15 09:35:16;;;;;;;5.90;5.50;;;25.60;99.90;;;;;;5033188;28;21010;-81
2023/08/15 09:37:45;;;;;;;6.90;6.40;;;25.60;99.90;;;;;;5032867;28;20468;-79
2023/08/15 09:40:17;;;;;;;5.73;5.37;;;25.60;99.90;;;;;;5033238;28;20543;-81
2023/08/15 09:42:45;;;;;;;8.03;7.40;;;25.60;99.90;;;;;;5023052;28;20479;-80
2023/08/15 09:45:13;;;;;;;7.90;5.60;;;25.60;99.90;;;;;;5033013;28;20554;-81
2023/08/15 09:47:40;;;;;;;6.63;6.13;;;25.60;99.90;;;;;;5032736;28;20547;-79
2023/08/15 09:50:08;;;;;;;6.43;5.93;;;25.70;99.90;;;;;;5033166;28;20549;-81
2023/08/15 09:52:39;;;;;;;6.93;6.33;;;25.70;99.90;;;;;;5033039;28;20950;-82
2023/08/15 09:55:09;;;;;;;7.10;6.60;;;25.70;99.90;;;;;;5033632;28;20521;-81
2023/08/15 09:57:36;;;;;;;7.40;6.77;;;25.80;99.90;;;;;;5032758;28;20475;-79
2023/08/15 10:00:12;;;;;;;7.63;7.13;;;25.80;99.90;;;;;;5033597;28;20476;-81
2023/08/15 10:02:44;;;;;;;6.37;5.87;;;25.80;99.90;;;;;;5033079;28;20542;-81
2023/08/15 10:05:13;;;;;;;7.33;6.83;;;25.80;99.90;;;;;;5033808;28;20796;-79
2023/08/15 10:07:42;;;;;;;6.97;6.47;;;25.80;99.90;;;;;;5032815;28;20473;-79
2023/08/15 10:10:12;;;;;;;6.00;5.60;;;25.80;99.90;;;;;;5033332;28;20802;-79
2023/08/15 10:12:41;;;;;;;6.47;6.03;;;25.80;99.90;;;;;;5032423;28;20486;-79
2023/08/15 10:15:10;;;;;;;6.73;6.23;;;25.80;99.90;;;;;;5032927;28;20472;-80
2023/08/15 10:17:37;;;;;;;7.40;6.70;;;25.70;99.90;;;;;;5031832;28;20499;-78
2023/08/15 10:20:10;;;;;;;6.13;5.60;;;25.70;99.90;;;;;;5033279;28;20462;-79
2023/08/15 10:22:40;;;;;;;7.00;6.40;;;25.70;99.90;;;;;;5033396;28;20517;-79
2023/08/15 10:25:35;;;;;;;7.63;7.03;;;25.70;99.90;;;;;;5036257;28;20464;-78
2023/08/15 10:28:06;;;;;;;10.80;9.90;;;25.70;99.90;;;;;;5027440;28;20934;-79
2023/08/15 10:30:35;;;;;;;10.17;9.27;;;25.80;99.90;;;;;;5036266;28;20464;-79
2023/08/15 10:33:13;;;;;;;10.03;9.13;;;25.80;99.90;;;;;;5035889;28;20476;-79
2023/08/15 10:35:47;;;;;;;8.37;7.77;;;25.80;99.90;;;;;;5036141;28;20483;-80
2023/08/15 10:38:16;;;;;;;11.60;10.47;;;25.80;99.90;;;;;;5036069;28;20468;-79
2023/08/15 10:40:45;;;;;;;11.20;10.27;;;25.90;99.90;;;;;;5035784;28;20962;-79
2023/08/15 10:43:15;;;;;;;11.97;10.80;;;25.90;99.90;;;;;;5036295;28;20471;-79
2023/08/15 10:45:45;;;;;;;11.30;10.30;;;25.90;99.90;;;;;;5034792;28;20985;-80
2023/08/15 10:48:12;;;;;;;11.13;10.27;;;25.90;99.90;;;;;;5035574;28;20531;-79
2023/08/15 10:50:46;;;;;;;10.67;9.87;;;25.90;99.90;;;;;;5036042;28;20572;-80
2023/08/15 10:53:13;;;;;;;9.90;9.10;;;25.90;99.90;;;;;;5035421;28;20969;-81
2023/08/15 10:55:43;;;;;;;9.13;8.53;;;25.90;99.90;;;;;;5035905;28;20556;-81
2023/08/15 10:58:12;;;;;;;8.00;7.37;;;25.90;99.90;;;;;;5035397;28;20856;-79
2023/08/15 11:00:43;;;;;;;7.87;7.20;;;25.80;99.90;;;;;;5034867;28;20490;-78
2023/08/15 11:03:11;;;;;;;8.47;7.77;;;25.70;99.90;;;;;;5035054;28;20517;-80
2023/08/15 11:05:41;;;;;;;8.70;8.00;;;25.70;99.90;;;;;;5035555;28;20472;-82
2023/08/15 11:08:12;;;;;;;8.37;7.67;;;25.70;99.90;;;;;;5035005;28;20492;-81
2023/08/15 11:10:44;;;;;;;7.00;6.50;;;25.60;99.90;;;;;;5035839;28;20526;-80
2023/08/15 11:13:13;;;;;;;7.83;6.83;;;25.60;99.90;;;;;;5034814;28;20472;-80
2023/08/15 11:15:40;;;;;;;7.60;6.90;;;25.60;99.90;;;;;;5035077;28;20518;-80
2023/08/15 11:18:07;;;;;;;8.47;7.33;;;25.60;99.90;;;;;;5034713;28;20532;-80
2023/08/15 11:20:36;;;;;;;7.50;7.00;;;25.60;99.90;;;;;;5035487;28;20547;-81
2023/08/15 11:23:04;;;;;;;8.80;8.07;;;25.60;99.90;;;;;;5024228;28;20464;-80
2023/08/15 11:25:31;;;;;;;6.70;6.20;;;25.70;99.90;;;;;;5035866;28;20548;-80
2023/08/15 11:28:02;;;;;;;7.57;6.63;;;25.70;99.90;;;;;;5034453;28;20966;-80
2023/08/15 11:30:31;;;;;;;7.70;7.10;;;25.70;99.90;;;;;;5035348;28;20480;-80
2023/08/15 11:32:58;;;;;;;6.43;5.93;;;25.70;99.90;;;;;;5023147;28;20492;-81
2023/08/15 11:35:25;;;;;;;7.00;6.50;;;25.70;99.90;;;;;;5034617;28;20469;-82
2023/08/15 11:37:52;;;;;;;7.20;6.50;;;25.80;99.90;;;;;;5035095;28;20481;-80
2023/08/15 11:40:19;;;;;;;7.63;7.10;;;25.80;99.90;;;;;;5034914;28;20472;-81
2023/08/15 11:42:47;;;;;;;7.83;7.23;;;25.90;99.90;;;;;;5035550;28;20472;-81
2023/08/15 11:45:18;;;;;;;6.90;6.40;;;26.00;99.90;;;;;;5034518;28;20473;-80
2023/08/15 11:47:57;;;;;;;7.77;7.07;;;26.10;99.90;;;;;;5027067;28;20962;-81
2023/08/15 11:50:26;;;;;;;9.00;8.40;;;26.10;99.90;;;;;;5034637;28;20507;-80
2023/08/15 11:52:53;;;;;;;8.77;8.03;;;26.20;99.90;;;;;;5035321;28;20480;-80
2023/08/15 11:55:20;;;;;;;7.60;7.00;;;26.20;99.90;;;;;;5034551;28;20557;-78
2023/08/15 11:57:48;;;;;;;7.53;7.03;;;26.30;99.90;;;;;;5034679;28;20469;-78
2023/08/15 12:00:17;;;;;;;7.83;7.20;;;26.30;99.90;;;;;;5034798;28;20476;-80
2023/08/15 12:02:45;;;;;;;8.43;7.60;;;26.30;99.90;;;;;;5035469;28;20502;-79
2023/08/15 12:05:16;;;;;;;9.47;8.77;;;26.30;99.90;;;;;;5034333;28;20569;-80
2023/08/15 12:07:47;;;;;;;8.10;7.40;;;26.30;99.90;;;;;;5034609;28;20452;-82
2023/08/15 12:10:15;;;;;;;7.83;6.03;;;26.30;99.90;;;;;;5034917;28;20470;-79
2023/08/15 12:12:51;;;;;;;8.80;7.30;;;26.50;99.90;;;;;;5033073;28;20471;-81
2023/08/15 12:15:17;;;;;;;6.77;6.17;;;26.60;99.90;;;;;;5035425;28;20482;-79
2023/08/15 12:17:45;;;;;;;7.60;6.93;;;26.70;99.90;;;;;;5024646;28;20475;-78
2023/08/15 12:20:25;;;;;;;7.70;7.20;;;26.80;99.90;;;;;;5034427;28;20471;-81
2023/08/15 12:22:54;;;;;;;7.77;7.23;;;26.80;99.90;;;;;;5034010;28;20501;-79
2023/08/15 12:25:21;;;;;;;7.97;7.17;;;26.80;99.90;;;;;;5033808;28;20478;-79
2023/08/15 12:27:50;;;;;;;6.80;6.30;;;26.80;99.90;;;;;;5033906;28;20470;-82
2023/08/15 12:30:20;;;;;;;6.30;5.90;;;26.80;99.90;;;;;;5035425;28;20959;-79
2023/08/15 12:32:48;;;;;;;7.30;6.80;;;26.70;99.90;;;;;;5034784;28;21027;-81
2023/08/15 12:35:15;;;;;;;7.30;6.80;;;26.70;99.90;;;;;;5032908;28;20826;-79
2023/08/15 12:37:44;;;;;;;6.90;6.20;;;26.80;99.90;;;;;;5033783;28;20467;-79
2023/08/15 12:40:21;;;;;;;7.10;6.60;;;26.90;99.90;;;;;;5034230;28;21071;-80
2023/08/15 12:43:14;;;;;;;6.97;6.47;;;26.80;99.90;;;;;;5022445;28;20483;-79
2023/08/15 12:48:31;;;;;;;7.73;7.17;;;26.60;99.90;;;;;;5034149;28;20461;-80
2023/08/15 12:51:00;;;;;;;6.93;6.43;;;26.70;99.90;;;;;;5023909;28;20461;-80
2023/08/15 12:53:29;;;;;;;6.90;6.30;;;26.60;99.90;;;;;;5026144;28;20470;-80
2023/08/15 12:56:02;;;;;;;6.87;6.37;;;26.70;99.90;;;;;;5032327;28;20471;-78